sensor_id;sensor_type;location;lat;lon;timestamp;pressure;altitude;pressure_sealevel;temperature;humidity
72570;BME280;60594;50.204;8.844;2023-06-04T00:00:02;100213.81;;;13.80;52.81
72570;BME280;60594;50.204;8.844;2023-06-04T00:02:32;100213.34;;;13.75;52.88
72570;BME280;60594;50.204;8.844;2023-06-04T00:04:58;100208.72;;;13.68;53.13
72570;BME280;60594;50.204;8.844;2023-06-04T00:07:25;100212.69;;;13.63;53.64
72570;BME280;60594;50.204;8.844;2023-06-04T00:09:52;100208.88;;;13.56;53.82
72570;BME280;60594;50.204;8.844;2023-06-04T00:12:18;100208.59;;;13.59;53.23
72570;BME280;60594;50.204;8.844;2023-06-04T00:14:45;100207.34;;;13.54;52.91
72570;BME280;60594;50.204;8.844;2023-06-04T00:17:11;100202.94;;;13.43;53.98
72570;BME280;60594;50.204;8.844;2023-06-04T00:19:39;100203.66;;;13.36;53.53
72570;BME280;60594;50.204;8.844;2023-06-04T00:22:06;100196.88;;;13.22;54.68
72570;BME280;60594;50.204;8.844;2023-06-04T00:24:34;100203.34;;;13.20;54.53
72570;BME280;60594;50.204;8.844;2023-06-04T00:27:01;100198.31;;;13.26;53.93
72570;BME280;60594;50.204;8.844;2023-06-04T00:29:27;100196.03;;;13.12;54.97
72570;BME280;60594;50.204;8.844;2023-06-04T00:31:54;100198.84;;;13.11;55.23
72570;BME280;60594;50.204;8.844;2023-06-04T00:34:20;100201.47;;;12.92;55.75
72570;BME280;60594;50.204;8.844;2023-06-04T00:36:47;100203.88;;;12.95;54.81
72570;BME280;60594;50.204;8.844;2023-06-04T00:39:14;100201.03;;;12.96;55.95
72570;BME280;60594;50.204;8.844;2023-06-04T00:41:40;100195.00;;;12.94;55.80
72570;BME280;60594;50.204;8.844;2023-06-04T00:44:07;100198.97;;;13.00;55.28
72570;BME280;60594;50.204;8.844;2023-06-04T00:46:34;100202.59;;;12.89;56.48
72570;BME280;60594;50.204;8.844;2023-06-04T00:49:04;100202.59;;;12.89;55.98
72570;BME280;60594;50.204;8.844;2023-06-04T00:51:32;100203.16;;;12.93;54.69
72570;BME280;60594;50.204;8.844;2023-06-04T00:53:59;100198.94;;;12.90;54.90
72570;BME280;60594;50.204;8.844;2023-06-04T00:56:27;100200.47;;;12.83;56.00
72570;BME280;60594;50.204;8.844;2023-06-04T00:58:54;100198.94;;;12.90;55.36
72570;BME280;60594;50.204;8.844;2023-06-04T01:01:42;100203.00;;;12.85;56.08
72570;BME280;60594;50.204;8.844;2023-06-04T01:04:16;100202.53;;;12.80;55.91
72570;BME280;60594;50.204;8.844;2023-06-04T01:06:49;100200.31;;;12.75;55.80
72570;BME280;60594;50.204;8.844;2023-06-04T01:09:16;100196.22;;;12.81;55.42
72570;BME280;60594;50.204;8.844;2023-06-04T01:11:42;100200.72;;;12.80;56.03
72570;BME280;60594;50.204;8.844;2023-06-04T01:14:09;100201.09;;;12.66;56.63
72570;BME280;60594;50.204;8.844;2023-06-04T01:16:42;100201.03;;;12.47;57.51
72570;BME280;60594;50.204;8.844;2023-06-04T01:19:33;100193.66;;;12.60;57.34
72570;BME280;60594;50.204;8.844;2023-06-04T01:22:32;100195.03;;;12.55;57.08
72570;BME280;60594;50.204;8.844;2023-06-04T01:25:03;100200.41;;;12.64;56.41
72570;BME280;60594;50.204;8.844;2023-06-04T01:27:30;100203.63;;;12.68;56.16
72570;BME280;60594;50.204;8.844;2023-06-04T01:29:59;100196.59;;;12.57;57.22
72570;BME280;60594;50.204;8.844;2023-06-04T01:32:26;100197.06;;;12.42;57.59
72570;BME280;60594;50.204;8.844;2023-06-04T01:34:54;100200.09;;;12.28;58.36
72570;BME280;60594;50.204;8.844;2023-06-04T01:37:20;100193.50;;;12.32;58.16
72570;BME280;60594;50.204;8.844;2023-06-04T01:39:47;100198.41;;;12.27;58.59
72570;BME280;60594;50.204;8.844;2023-06-04T01:42:13;100201.03;;;12.17;58.49
72570;BME280;60594;50.204;8.844;2023-06-04T01:44:39;100202.66;;;12.29;58.62
72570;BME280;60594;50.204;8.844;2023-06-04T01:47:06;100201.47;;;12.22;58.67
72570;BME280;60594;50.204;8.844;2023-06-04T01:49:32;100199.81;;;12.21;58.45
72570;BME280;60594;50.204;8.844;2023-06-04T01:51:59;100206.38;;;12.17;58.85
72570;BME280;60594;50.204;8.844;2023-06-04T01:54:26;100206.56;;;12.25;57.74
72570;BME280;60594;50.204;8.844;2023-06-04T01:56:52;100203.59;;;12.19;58.72
72570;BME280;60594;50.204;8.844;2023-06-04T01:59:19;100211.38;;;12.01;58.89
72570;BME280;60594;50.204;8.844;2023-06-04T02:01:45;100197.72;;;12.04;58.82
72570;BME280;60594;50.204;8.844;2023-06-04T02:04:12;100204.66;;;12.07;59.02
72570;BME280;60594;50.204;8.844;2023-06-04T02:06:38;100201.00;;;12.08;58.57
72570;BME280;60594;50.204;8.844;2023-06-04T02:09:05;100201.06;;;11.97;59.96
72570;BME280;60594;50.204;8.844;2023-06-04T02:11:32;100200.28;;;11.85;59.99
72570;BME280;60594;50.204;8.844;2023-06-04T02:13:58;100209.03;;;11.87;59.62
72570;BME280;60594;50.204;8.844;2023-06-04T02:16:25;100204.13;;;11.92;59.37
72570;BME280;60594;50.204;8.844;2023-06-04T02:18:51;100204.66;;;11.86;59.97
72570;BME280;60594;50.204;8.844;2023-06-04T02:21:17;100206.50;;;11.86;59.86
72570;BME280;60594;50.204;8.844;2023-06-04T02:23:44;100208.78;;;11.90;59.55
72570;BME280;60594;50.204;8.844;2023-06-04T02:26:10;100206.16;;;11.79;59.45
72570;BME280;60594;50.204;8.844;2023-06-04T02:28:37;100202.63;;;11.79;59.34
72570;BME280;60594;50.204;8.844;2023-06-04T02:31:04;100208.44;;;11.84;60.06
72570;BME280;60594;50.204;8.844;2023-06-04T02:33:31;100213.38;;;11.68;60.69
72570;BME280;60594;50.204;8.844;2023-06-04T02:35:57;100207.34;;;11.66;61.28
72570;BME280;60594;50.204;8.844;2023-06-04T02:38:24;100206.75;;;11.62;60.98
72570;BME280;60594;50.204;8.844;2023-06-04T02:40:50;100208.03;;;11.68;60.63
72570;BME280;60594;50.204;8.844;2023-06-04T02:43:17;100202.84;;;11.87;59.39
72570;BME280;60594;50.204;8.844;2023-06-04T02:45:43;100206.66;;;11.94;59.73
72570;BME280;60594;50.204;8.844;2023-06-04T02:48:10;100202.25;;;11.83;60.43
72570;BME280;60594;50.204;8.844;2023-06-04T02:50:36;100204.06;;;11.62;61.20
72570;BME280;60594;50.204;8.844;2023-06-04T02:53:02;100213.16;;;11.60;61.69
72570;BME280;60594;50.204;8.844;2023-06-04T02:55:29;100208.19;;;11.55;61.42
72570;BME280;60594;50.204;8.844;2023-06-04T02:57:56;100207.13;;;11.47;61.35
72570;BME280;60594;50.204;8.844;2023-06-04T03:00:22;100206.75;;;11.51;61.32
72570;BME280;60594;50.204;8.844;2023-06-04T03:02:49;100210.09;;;11.44;61.55
72570;BME280;60594;50.204;8.844;2023-06-04T03:05:16;100209.59;;;11.39;61.70
72570;BME280;60594;50.204;8.844;2023-06-04T03:07:45;100213.13;;;11.39;61.43
72570;BME280;60594;50.204;8.844;2023-06-04T03:10:13;100216.78;;;11.38;61.67
72570;BME280;60594;50.204;8.844;2023-06-04T03:12:39;100208.28;;;11.33;62.20
72570;BME280;60594;50.204;8.844;2023-06-04T03:15:06;100209.31;;;11.21;63.08
72570;BME280;60594;50.204;8.844;2023-06-04T03:17:33;100218.19;;;11.22;63.07
72570;BME280;60594;50.204;8.844;2023-06-04T03:20:00;100207.34;;;11.23;62.85
72570;BME280;60594;50.204;8.844;2023-06-04T03:22:26;100211.63;;;11.26;62.12
72570;BME280;60594;50.204;8.844;2023-06-04T03:24:54;100215.22;;;11.25;63.19
72570;BME280;60594;50.204;8.844;2023-06-04T03:27:21;100217.78;;;11.26;63.12
72570;BME280;60594;50.204;8.844;2023-06-04T03:29:48;100215.91;;;11.06;64.00
72570;BME280;60594;50.204;8.844;2023-06-04T03:32:16;100210.69;;;11.05;63.05
72570;BME280;60594;50.204;8.844;2023-06-04T03:34:43;100211.66;;;11.15;63.71
72570;BME280;60594;50.204;8.844;2023-06-04T03:37:11;100210.53;;;11.17;62.77
72570;BME280;60594;50.204;8.844;2023-06-04T03:39:37;100216.13;;;11.14;62.59
72570;BME280;60594;50.204;8.844;2023-06-04T03:42:06;100213.38;;;11.05;63.68
72570;BME280;60594;50.204;8.844;2023-06-04T03:44:33;100211.50;;;10.85;64.59
72570;BME280;60594;50.204;8.844;2023-06-04T03:47:02;100216.56;;;10.88;64.20
72570;BME280;60594;50.204;8.844;2023-06-04T03:49:28;100217.44;;;10.77;64.69
72570;BME280;60594;50.204;8.844;2023-06-04T03:51:55;100215.72;;;10.87;64.38
72570;BME280;60594;50.204;8.844;2023-06-04T03:54:22;100220.69;;;10.81;64.60
72570;BME280;60594;50.204;8.844;2023-06-04T03:56:50;100215.34;;;10.81;64.38
72570;BME280;60594;50.204;8.844;2023-06-04T03:59:16;100217.78;;;10.73;64.61
72570;BME280;60594;50.204;8.844;2023-06-04T04:01:43;100224.56;;;10.77;65.00
72570;BME280;60594;50.204;8.844;2023-06-04T04:04:10;100222.19;;;10.74;65.35
72570;BME280;60594;50.204;8.844;2023-06-04T04:06:36;100219.72;;;10.82;64.75
72570;BME280;60594;50.204;8.844;2023-06-04T04:09:04;100225.44;;;10.77;64.99
72570;BME280;60594;50.204;8.844;2023-06-04T04:11:33;100224.84;;;10.74;65.25
72570;BME280;60594;50.204;8.844;2023-06-04T04:13:59;100221.69;;;10.69;65.12
72570;BME280;60594;50.204;8.844;2023-06-04T04:16:28;100219.66;;;10.61;65.79
72570;BME280;60594;50.204;8.844;2023-06-04T04:18:54;100223.13;;;10.62;65.12
72570;BME280;60594;50.204;8.844;2023-06-04T04:21:21;100221.94;;;10.55;65.89
72570;BME280;60594;50.204;8.844;2023-06-04T04:23:49;100228.34;;;10.63;65.13
72570;BME280;60594;50.204;8.844;2023-06-04T04:26:15;100229.09;;;10.65;65.79
72570;BME280;60594;50.204;8.844;2023-06-04T04:28:44;100229.69;;;10.58;66.33
72570;BME280;60594;50.204;8.844;2023-06-04T04:31:11;100229.78;;;10.67;66.17
72570;BME280;60594;50.204;8.844;2023-06-04T04:33:38;100227.34;;;10.75;66.01
72570;BME280;60594;50.204;8.844;2023-06-04T04:36:10;100230.41;;;10.82;65.63
72570;BME280;60594;50.204;8.844;2023-06-04T04:38:40;100231.19;;;10.93;65.47
72570;BME280;60594;50.204;8.844;2023-06-04T04:41:07;100234.59;;;10.95;66.17
72570;BME280;60594;50.204;8.844;2023-06-04T04:43:36;100234.50;;;10.97;66.27
72570;BME280;60594;50.204;8.844;2023-06-04T04:46:15;100231.94;;;10.95;66.32
72570;BME280;60594;50.204;8.844;2023-06-04T04:48:41;100233.50;;;10.98;66.99
72570;BME280;60594;50.204;8.844;2023-06-04T04:51:08;100233.25;;;11.01;66.31
72570;BME280;60594;50.204;8.844;2023-06-04T04:53:36;100233.03;;;11.04;66.87
72570;BME280;60594;50.204;8.844;2023-06-04T04:56:03;100237.13;;;11.08;67.86
72570;BME280;60594;50.204;8.844;2023-06-04T04:58:31;100234.00;;;10.92;66.99
72570;BME280;60594;50.204;8.844;2023-06-04T05:00:59;100238.28;;;10.83;67.90
72570;BME280;60594;50.204;8.844;2023-06-04T05:03:25;100243.19;;;10.99;67.61
72570;BME280;60594;50.204;8.844;2023-06-04T05:05:52;100240.63;;;11.08;66.38
72570;BME280;60594;50.204;8.844;2023-06-04T05:08:19;100245.13;;;11.08;67.15
72570;BME280;60594;50.204;8.844;2023-06-04T05:10:46;100248.38;;;11.11;67.68
72570;BME280;60594;50.204;8.844;2023-06-04T05:13:12;100254.06;;;11.07;66.81
72570;BME280;60594;50.204;8.844;2023-06-04T05:15:48;100254.97;;;10.96;68.26
72570;BME280;60594;50.204;8.844;2023-06-04T05:18:18;100253.50;;;11.03;67.15
72570;BME280;60594;50.204;8.844;2023-06-04T05:20:47;100254.06;;;11.07;66.87
72570;BME280;60594;50.204;8.844;2023-06-04T05:23:14;100260.16;;;10.98;68.63
72570;BME280;60594;50.204;8.844;2023-06-04T05:25:43;100266.22;;;11.11;68.13
72570;BME280;60594;50.204;8.844;2023-06-04T05:28:10;100266.94;;;11.13;67.81
72570;BME280;60594;50.204;8.844;2023-06-04T05:30:39;100271.66;;;11.20;68.71
72570;BME280;60594;50.204;8.844;2023-06-04T05:33:07;100267.47;;;11.38;67.97
72570;BME280;60594;50.204;8.844;2023-06-04T05:35:48;100269.47;;;11.57;66.87
72570;BME280;60594;50.204;8.844;2023-06-04T05:38:15;100272.00;;;11.58;67.98
72570;BME280;60594;50.204;8.844;2023-06-04T05:40:44;100277.94;;;11.62;68.32
72570;BME280;60594;50.204;8.844;2023-06-04T05:43:12;100277.69;;;11.65;68.31
72570;BME280;60594;50.204;8.844;2023-06-04T05:45:39;100274.78;;;11.68;68.54
72570;BME280;60594;50.204;8.844;2023-06-04T05:48:07;100280.84;;;11.70;68.88
72570;BME280;60594;50.204;8.844;2023-06-04T05:50:33;100273.06;;;11.78;66.93
72570;BME280;60594;50.204;8.844;2023-06-04T05:53:01;100281.44;;;11.94;66.61
72570;BME280;60594;50.204;8.844;2023-06-04T05:55:27;100285.63;;;12.07;66.19
72570;BME280;60594;50.204;8.844;2023-06-04T05:57:55;100286.22;;;12.11;65.82
72570;BME280;60594;50.204;8.844;2023-06-04T06:00:22;100273.19;;;12.17;66.44
72570;BME280;60594;50.204;8.844;2023-06-04T06:02:50;100274.91;;;12.28;65.13
72570;BME280;60594;50.204;8.844;2023-06-04T06:05:32;100276.50;;;12.30;64.75
72570;BME280;60594;50.204;8.844;2023-06-04T06:07:59;100280.19;;;12.39;65.28
72570;BME280;60594;50.204;8.844;2023-06-04T06:10:25;100283.78;;;12.49;64.54
72570;BME280;60594;50.204;8.844;2023-06-04T06:12:52;100282.13;;;12.57;64.64
72570;BME280;60594;50.204;8.844;2023-06-04T06:15:19;100283.16;;;12.66;65.69
72570;BME280;60594;50.204;8.844;2023-06-04T06:17:48;100280.78;;;12.72;65.40
72570;BME280;60594;50.204;8.844;2023-06-04T06:20:14;100282.47;;;12.73;66.22
72570;BME280;60594;50.204;8.844;2023-06-04T06:22:45;100285.75;;;12.77;65.52
72570;BME280;60594;50.204;8.844;2023-06-04T06:25:12;100291.97;;;12.87;64.39
72570;BME280;60594;50.204;8.844;2023-06-04T06:27:43;100294.09;;;12.93;65.75
72570;BME280;60594;50.204;8.844;2023-06-04T06:30:12;100281.78;;;13.01;65.73
72570;BME280;60594;50.204;8.844;2023-06-04T06:32:39;100280.81;;;13.12;63.06
72570;BME280;60594;50.204;8.844;2023-06-04T06:35:05;100286.78;;;13.25;62.83
72570;BME280;60594;50.204;8.844;2023-06-04T06:37:32;100282.69;;;13.30;63.46
72570;BME280;60594;50.204;8.844;2023-06-04T06:39:59;100286.53;;;13.37;62.65
72570;BME280;60594;50.204;8.844;2023-06-04T06:42:25;100294.44;;;13.48;62.50
72570;BME280;60594;50.204;8.844;2023-06-04T06:44:54;100292.03;;;13.64;62.41
72570;BME280;60594;50.204;8.844;2023-06-04T06:47:21;100305.03;;;13.79;62.44
72570;BME280;60594;50.204;8.844;2023-06-04T06:49:47;100301.63;;;13.86;62.86
72570;BME280;60594;50.204;8.844;2023-06-04T06:52:13;100300.94;;;13.94;63.92
72570;BME280;60594;50.204;8.844;2023-06-04T06:54:40;100303.47;;;13.95;62.26
72570;BME280;60594;50.204;8.844;2023-06-04T06:57:06;100309.94;;;13.93;61.03
72570;BME280;60594;50.204;8.844;2023-06-04T06:59:35;100304.16;;;13.97;61.57
72570;BME280;60594;50.204;8.844;2023-06-04T07:02:02;100311.91;;;14.10;62.11
72570;BME280;60594;50.204;8.844;2023-06-04T07:04:29;100308.25;;;14.30;60.08
72570;BME280;60594;50.204;8.844;2023-06-04T07:06:55;100305.53;;;14.49;59.40
72570;BME280;60594;50.204;8.844;2023-06-04T07:09:21;100305.91;;;14.63;60.56
72570;BME280;60594;50.204;8.844;2023-06-04T07:11:48;100308.16;;;14.68;59.78
72570;BME280;60594;50.204;8.844;2023-06-04T07:14:14;100310.94;;;14.76;58.27
72570;BME280;60594;50.204;8.844;2023-06-04T07:16:41;100308.47;;;14.92;56.88
72570;BME280;60594;50.204;8.844;2023-06-04T07:19:07;100314.94;;;14.99;58.86
72570;BME280;60594;50.204;8.844;2023-06-04T07:21:34;100314.31;;;15.14;56.77
72570;BME280;60594;50.204;8.844;2023-06-04T07:24:01;100311.28;;;15.27;56.87
72570;BME280;60594;50.204;8.844;2023-06-04T07:26:28;100314.47;;;15.40;56.96
72570;BME280;60594;50.204;8.844;2023-06-04T07:28:56;100310.84;;;15.58;53.91
72570;BME280;60594;50.204;8.844;2023-06-04T07:31:23;100309.38;;;15.64;54.80
72570;BME280;60594;50.204;8.844;2023-06-04T07:33:49;100314.91;;;15.62;56.09
72570;BME280;60594;50.204;8.844;2023-06-04T07:36:16;100310.22;;;15.82;54.80
72570;BME280;60594;50.204;8.844;2023-06-04T07:38:43;100314.94;;;15.97;53.33
72570;BME280;60594;50.204;8.844;2023-06-04T07:41:09;100309.63;;;16.05;53.79
72570;BME280;60594;50.204;8.844;2023-06-04T07:43:36;100311.06;;;16.17;53.56
72570;BME280;60594;50.204;8.844;2023-06-04T07:46:03;100320.94;;;16.34;52.15
72570;BME280;60594;50.204;8.844;2023-06-04T07:48:30;100314.81;;;16.42;52.94
72570;BME280;60594;50.204;8.844;2023-06-04T07:51:01;100303.28;;;16.49;53.47
72570;BME280;60594;50.204;8.844;2023-06-04T07:53:30;100308.91;;;16.64;50.40
72570;BME280;60594;50.204;8.844;2023-06-04T07:55:57;100306.94;;;16.74;48.73
72570;BME280;60594;50.204;8.844;2023-06-04T07:58:23;100314.19;;;16.73;50.84
72570;BME280;60594;50.204;8.844;2023-06-04T08:00:50;100314.88;;;16.75;50.64
72570;BME280;60594;50.204;8.844;2023-06-04T08:03:17;100313.13;;;16.92;49.95
72570;BME280;60594;50.204;8.844;2023-06-04T08:05:44;100309.97;;;17.05;49.65
72570;BME280;60594;50.204;8.844;2023-06-04T08:08:11;100301.78;;;17.14;49.84
72570;BME280;60594;50.204;8.844;2023-06-04T08:10:39;100298.09;;;17.23;51.73
72570;BME280;60594;50.204;8.844;2023-06-04T08:13:06;100295.44;;;17.39;47.30
72570;BME280;60594;50.204;8.844;2023-06-04T08:15:32;100304.97;;;17.51;49.00
72570;BME280;60594;50.204;8.844;2023-06-04T08:18:18;100294.38;;;17.58;50.02
72570;BME280;60594;50.204;8.844;2023-06-04T08:21:05;100295.72;;;17.70;49.12
72570;BME280;60594;50.204;8.844;2023-06-04T08:23:42;100291.88;;;17.88;47.39
72570;BME280;60594;50.204;8.844;2023-06-04T08:26:28;100295.59;;;18.03;47.99
72570;BME280;60594;50.204;8.844;2023-06-04T08:29:05;100296.94;;;18.15;47.86
72570;BME280;60594;50.204;8.844;2023-06-04T08:31:35;100301.16;;;18.26;47.60
72570;BME280;60594;50.204;8.844;2023-06-04T08:34:09;100305.56;;;18.43;45.96
72570;BME280;60594;50.204;8.844;2023-06-04T08:36:36;100290.22;;;18.51;46.87
72570;BME280;60594;50.204;8.844;2023-06-04T08:39:02;100297.09;;;18.62;48.87
72570;BME280;60594;50.204;8.844;2023-06-04T08:41:34;100298.28;;;18.67;46.96
72570;BME280;60594;50.204;8.844;2023-06-04T08:44:04;100301.47;;;18.79;46.06
72570;BME280;60594;50.204;8.844;2023-06-04T08:46:32;100303.09;;;18.96;46.42
72570;BME280;60594;50.204;8.844;2023-06-04T08:49:00;100299.69;;;19.02;45.24
72570;BME280;60594;50.204;8.844;2023-06-04T08:51:33;100300.34;;;19.12;44.29
72570;BME280;60594;50.204;8.844;2023-06-04T08:54:00;100298.47;;;19.20;43.83
72570;BME280;60594;50.204;8.844;2023-06-04T08:56:26;100299.59;;;19.34;43.89
72570;BME280;60594;50.204;8.844;2023-06-04T08:59:06;100296.94;;;19.56;42.33
72570;BME280;60594;50.204;8.844;2023-06-04T09:01:34;100295.16;;;19.71;41.02
72570;BME280;60594;50.204;8.844;2023-06-04T09:04:05;100296.38;;;19.91;39.17
72570;BME280;60594;50.204;8.844;2023-06-04T09:06:32;100303.84;;;20.12;40.79
72570;BME280;60594;50.204;8.844;2023-06-04T09:09:01;100306.25;;;20.30;38.86
72570;BME280;60594;50.204;8.844;2023-06-04T09:11:35;100304.13;;;20.40;37.78
72570;BME280;60594;50.204;8.844;2023-06-04T09:14:05;100297.50;;;20.57;37.46
72570;BME280;60594;50.204;8.844;2023-06-04T09:16:42;100303.91;;;20.78;37.81
72570;BME280;60594;50.204;8.844;2023-06-04T09:19:09;100310.38;;;21.06;38.35
72570;BME280;60594;50.204;8.844;2023-06-04T09:21:46;100309.00;;;21.25;34.41
72570;BME280;60594;50.204;8.844;2023-06-04T09:24:13;100313.19;;;21.42;37.27
72570;BME280;60594;50.204;8.844;2023-06-04T09:26:39;100310.78;;;21.68;36.99
72570;BME280;60594;50.204;8.844;2023-06-04T09:29:06;100308.22;;;21.95;33.62
72570;BME280;60594;50.204;8.844;2023-06-04T09:31:34;100311.19;;;22.00;35.24
72570;BME280;60594;50.204;8.844;2023-06-04T09:34:03;100316.19;;;22.24;35.89
72570;BME280;60594;50.204;8.844;2023-06-04T09:36:30;100315.25;;;22.53;36.71
72570;BME280;60594;50.204;8.844;2023-06-04T09:38:58;100314.72;;;22.64;35.20
72570;BME280;60594;50.204;8.844;2023-06-04T09:41:26;100306.06;;;22.81;32.75
72570;BME280;60594;50.204;8.844;2023-06-04T09:44:01;100302.91;;;23.12;32.97
72570;BME280;60594;50.204;8.844;2023-06-04T09:46:29;100304.03;;;23.24;31.75
72570;BME280;60594;50.204;8.844;2023-06-04T09:49:01;100304.75;;;23.39;32.51
72570;BME280;60594;50.204;8.844;2023-06-04T09:51:28;100301.03;;;23.53;30.77
72570;BME280;60594;50.204;8.844;2023-06-04T09:54:02;100294.72;;;23.46;31.71
72570;BME280;60594;50.204;8.844;2023-06-04T09:56:29;100299.78;;;23.56;34.54
72570;BME280;60594;50.204;8.844;2023-06-04T09:58:58;100290.56;;;23.50;31.62
72570;BME280;60594;50.204;8.844;2023-06-04T10:01:28;100294.56;;;23.61;30.53
72570;BME280;60594;50.204;8.844;2023-06-04T10:03:57;100299.38;;;23.59;31.95
72570;BME280;60594;50.204;8.844;2023-06-04T10:06:25;100294.81;;;23.72;30.61
72570;BME280;60594;50.204;8.844;2023-06-04T10:08:54;100290.50;;;23.91;32.92
72570;BME280;60594;50.204;8.844;2023-06-04T10:11:34;100289.72;;;24.16;32.42
72570;BME280;60594;50.204;8.844;2023-06-04T10:14:03;100285.31;;;24.35;32.63
72570;BME280;60594;50.204;8.844;2023-06-04T10:16:32;100287.41;;;24.46;34.21
72570;BME280;60594;50.204;8.844;2023-06-04T10:18:59;100277.56;;;24.38;29.25
72570;BME280;60594;50.204;8.844;2023-06-04T10:21:26;100281.53;;;24.23;29.22
72570;BME280;60594;50.204;8.844;2023-06-04T10:23:54;100284.47;;;24.21;30.49
72570;BME280;60594;50.204;8.844;2023-06-04T10:26:20;100275.66;;;24.52;31.22
72570;BME280;60594;50.204;8.844;2023-06-04T10:28:48;100276.09;;;24.68;30.39
72570;BME280;60594;50.204;8.844;2023-06-04T10:31:15;100281.94;;;24.46;29.92
72570;BME280;60594;50.204;8.844;2023-06-04T10:33:42;100283.00;;;24.45;32.00
72570;BME280;60594;50.204;8.844;2023-06-04T10:36:19;100268.34;;;24.72;33.71
72570;BME280;60594;50.204;8.844;2023-06-04T10:38:51;100271.66;;;24.93;33.70
72570;BME280;60594;50.204;8.844;2023-06-04T10:41:20;100278.38;;;24.91;28.72
72570;BME280;60594;50.204;8.844;2023-06-04T10:43:51;100281.97;;;24.59;32.48
72570;BME280;60594;50.204;8.844;2023-06-04T10:46:19;100278.19;;;24.47;29.75
72570;BME280;60594;50.204;8.844;2023-06-04T10:48:53;100282.59;;;24.48;32.85
72570;BME280;60594;50.204;8.844;2023-06-04T11:12:47;100262.44;;;24.88;29.30
72570;BME280;60594;50.204;8.844;2023-06-04T11:15:21;100261.59;;;24.87;29.51
72570;BME280;60594;50.204;8.844;2023-06-04T11:17:55;100257.00;;;24.75;29.33
72570;BME280;60594;50.204;8.844;2023-06-04T11:20:24;100255.31;;;24.80;31.15
72570;BME280;60594;50.204;8.844;2023-06-04T11:25:19;100251.75;;;24.86;27.53
72570;BME280;60594;50.204;8.844;2023-06-04T11:27:49;100261.81;;;24.86;28.35
72570;BME280;60594;50.204;8.844;2023-06-04T11:30:22;100263.13;;;24.70;26.99
72570;BME280;60594;50.204;8.844;2023-06-04T11:32:50;100255.75;;;24.71;28.67
72570;BME280;60594;50.204;8.844;2023-06-04T11:35:17;100249.69;;;24.69;29.62
72570;BME280;60594;50.204;8.844;2023-06-04T11:37:53;100253.38;;;24.94;34.21
72570;BME280;60594;50.204;8.844;2023-06-04T11:40:20;100241.97;;;25.23;29.91
72570;BME280;60594;50.204;8.844;2023-06-04T11:42:48;100257.69;;;25.27;29.22
72570;BME280;60594;50.204;8.844;2023-06-04T11:45:20;100244.50;;;25.31;27.88
72570;BME280;60594;50.204;8.844;2023-06-04T11:47:48;100255.38;;;25.37;28.48
72570;BME280;60594;50.204;8.844;2023-06-04T11:50:17;100234.81;;;25.35;29.83
72570;BME280;60594;50.204;8.844;2023-06-04T11:52:46;100243.91;;;25.60;32.05
72570;BME280;60594;50.204;8.844;2023-06-04T11:55:15;100246.59;;;25.73;29.06
72570;BME280;60594;50.204;8.844;2023-06-04T11:57:44;100236.41;;;25.55;28.39
72570;BME280;60594;50.204;8.844;2023-06-04T12:00:12;100248.59;;;25.46;26.21
72570;BME280;60594;50.204;8.844;2023-06-04T12:02:59;100241.31;;;25.27;27.15
72570;BME280;60594;50.204;8.844;2023-06-04T12:05:30;100225.19;;;25.19;29.48
72570;BME280;60594;50.204;8.844;2023-06-04T12:08:06;100233.13;;;25.34;30.26
72570;BME280;60594;50.204;8.844;2023-06-04T12:10:40;100236.41;;;25.49;31.79
72570;BME280;60594;50.204;8.844;2023-06-04T12:13:37;100228.91;;;25.75;31.09
72570;BME280;60594;50.204;8.844;2023-06-04T12:16:05;100227.72;;;25.65;27.41
72570;BME280;60594;50.204;8.844;2023-06-04T12:18:31;100221.59;;;25.69;26.95
72570;BME280;60594;50.204;8.844;2023-06-04T12:20:59;100224.25;;;25.51;30.73
72570;BME280;60594;50.204;8.844;2023-06-04T12:23:27;100218.75;;;25.58;27.31
72570;BME280;60594;50.204;8.844;2023-06-04T12:26:03;100223.19;;;25.02;26.43
72570;BME280;60594;50.204;8.844;2023-06-04T12:28:30;100214.56;;;24.98;30.28
72570;BME280;60594;50.204;8.844;2023-06-04T12:30:59;100222.03;;;25.29;28.59
72570;BME280;60594;50.204;8.844;2023-06-04T12:33:26;100212.94;;;25.41;27.79
72570;BME280;60594;50.204;8.844;2023-06-04T12:35:53;100217.34;;;25.42;31.18
72570;BME280;60594;50.204;8.844;2023-06-04T12:38:20;100215.00;;;25.52;29.19
72570;BME280;60594;50.204;8.844;2023-06-04T12:40:47;100209.47;;;25.15;29.12
72570;BME280;60594;50.204;8.844;2023-06-04T12:43:15;100208.09;;;25.43;31.92
72570;BME280;60594;50.204;8.844;2023-06-04T12:45:43;100217.06;;;25.88;31.96
72570;BME280;60594;50.204;8.844;2023-06-04T12:48:10;100225.75;;;26.10;28.17
72570;BME280;60594;50.204;8.844;2023-06-04T12:50:37;100219.41;;;26.16;30.43
72570;BME280;60594;50.204;8.844;2023-06-04T12:53:04;100216.53;;;26.11;26.69
72570;BME280;60594;50.204;8.844;2023-06-04T12:55:31;100214.72;;;25.98;27.34
72570;BME280;60594;50.204;8.844;2023-06-04T12:57:58;100203.84;;;25.85;26.60
72570;BME280;60594;50.204;8.844;2023-06-04T13:00:27;100207.19;;;25.87;28.90
72570;BME280;60594;50.204;8.844;2023-06-04T13:02:54;100206.19;;;25.81;26.57
72570;BME280;60594;50.204;8.844;2023-06-04T13:05:22;100197.78;;;25.83;28.15
72570;BME280;60594;50.204;8.844;2023-06-04T13:07:49;100195.38;;;26.00;27.29
72570;BME280;60594;50.204;8.844;2023-06-04T13:10:18;100201.78;;;26.12;29.48
72570;BME280;60594;50.204;8.844;2023-06-04T13:12:45;100196.66;;;26.22;29.45
72570;BME280;60594;50.204;8.844;2023-06-04T13:15:13;100194.16;;;25.96;27.57
72570;BME280;60594;50.204;8.844;2023-06-04T13:17:40;100189.72;;;26.19;32.95
72570;BME280;60594;50.204;8.844;2023-06-04T13:20:07;100199.59;;;26.45;29.56